Home   Weather   Germany   Gladbeck   Past weeks
Flag for Germany

Past Weather in Gladbeck, North Rhine-Westphalia, Germany — Yesterday and Last 2 Weeks

Currently: 46 °F. Passing clouds. (Weather station: Duesseldorf, Germany). See more current weather

Past Weather in Gladbeck — Graph

°F

Gladbeck Temperature Yesterday

Maximum temperature yesterday: 66 °F (at 3:50 pm)
Minimum temperature yesterday: 50 °F (at 6:20 am)
Average temperature yesterday: 57 °F

High & Low Weather Summary for the Past Weeks

 TemperatureHumidityPressure
High68 °F (Feb 24, 2:20 pm)100% (Feb 16, 4:20 am)30.72 "Hg (Feb 16, 4:20 am)
Low9 °F (Feb 11, 7:20 am)33% (Feb 14, 1:50 pm)29.71 "Hg (Feb 18, 5:20 pm)
Average44 °F68%30.23 "Hg
* Reported Feb 11 3:20 am — Feb 26 3:50 am, Gladbeck. Weather by CustomWeather, © 2021

Note: Actual official high and low records may vary slightly from our data, if they occured in-between our weather recording intervals... More about our weather records

Gladbeck Weather History for the Previous 24 Hours

Scroll right to see more
 ConditionsComfort  
Time TempWeatherWind HumidityBarometerVisibility
3:50 am
Fri, Feb 26
46 °FPassing clouds.5 mph87%30.42 "HgN/A
3:20 am46 °FLight rain. Passing clouds.7 mph87%30.39 "HgN/A
2:50 am46 °FLight rain. Passing clouds.10 mph93%30.42 "Hg5 mi
2:20 am48 °FPartly cloudy.13 mph94%30.42 "Hg4 mi
1:50 am48 °FPassing clouds.13 mph94%30.42 "Hg2 mi
1:20 am50 °FPassing clouds.10 mph94%30.42 "Hg2 mi
12:50 am50 °FPartly cloudy.6 mph94%30.39 "Hg4 mi
12:20 am52 °FPassing clouds.6 mph88%30.39 "HgN/A
11:50 pm
Thu, Feb 25
52 °FPassing clouds.6 mph88%30.39 "HgN/A
11:20 pm52 °FPassing clouds.7 mph88%30.36 "HgN/A
10:50 pm52 °FPassing clouds.7 mph88%30.36 "HgN/A
10:20 pm52 °FClear.12 mph88%30.36 "Hg10 mi
9:50 pm54 °FClear.12 mph82%30.36 "Hg10 mi
9:20 pm55 °FClear.14 mph77%30.33 "Hg10 mi
8:50 pm57 °FClear.2 mph67%30.33 "Hg10 mi
8:20 pm59 °FClear.2 mph63%30.30 "Hg10 mi
7:50 pm59 °FClear.3 mph63%30.30 "Hg10 mi
7:20 pm59 °FClear.2 mph63%30.30 "Hg10 mi
6:50 pm59 °FClear.3 mph68%30.30 "Hg10 mi
6:20 pm61 °FClear.2 mph59%30.30 "Hg10 mi
5:50 pm63 °FSunny.1 mph56%30.30 "Hg10 mi
5:20 pm64 °FSunny.2 mph52%30.30 "Hg10 mi
4:50 pm64 °FSunny.2 mph52%30.30 "Hg10 mi
4:20 pm64 °FSunny.6 mph52%30.30 "Hg10 mi
3:50 pm66 °FPassing clouds.5 mph46%30.30 "HgN/A
3:20 pm64 °FSunny.7 mph49%30.30 "Hg10 mi
2:50 pm64 °FSunny.7 mph49%30.30 "Hg10 mi
2:20 pm64 °FSunny.8 mph49%30.30 "Hg10 mi
1:50 pm64 °FSunny.9 mph49%30.30 "Hg10 mi
12:50 pm63 °FSunny.10 mph56%30.33 "Hg10 mi
12:20 pm63 °FSunny.9 mph59%30.33 "Hg10 mi
11:50 am63 °FPassing clouds.7 mph56%30.33 "HgN/A
11:20 am61 °FSunny.7 mph59%30.33 "Hg10 mi
10:50 am61 °FSunny.8 mph59%30.33 "Hg10 mi
10:20 am57 °FSunny.9 mph63%30.33 "Hg10 mi
9:50 am55 °FSunny.8 mph67%30.30 "Hg10 mi
9:20 am54 °FSunny.10 mph72%30.30 "Hg10 mi
8:50 am52 °FSunny.8 mph72%30.30 "Hg10 mi
8:20 am50 °FSunny.10 mph76%30.30 "Hg10 mi
7:50 am50 °FSunny.12 mph76%30.30 "Hg10 mi
7:20 am50 °FClear.13 mph76%30.30 "Hg10 mi
6:50 am50 °FClear.12 mph76%30.30 "Hg10 mi
6:20 am50 °FClear.10 mph76%30.30 "Hg10 mi
5:50 am52 °FClear.13 mph72%30.30 "Hg10 mi
5:20 am52 °FClear.12 mph72%30.30 "Hg10 mi
Weather by CustomWeather, © 2021

See weather overview